createdAt,value
2023-11-30T00:01:26.705Z,94588.94
2023-11-30T00:03:29.607Z,94585.38
2023-11-30T00:05:32.511Z,94581.94
2023-11-30T00:07:37.095Z,94588.50
2023-11-30T00:09:40.257Z,94586.81
2023-11-30T00:11:43.115Z,94583.84
2023-11-30T00:13:45.868Z,94573.16
2023-11-30T00:15:48.007Z,94573.59
2023-11-30T00:17:50.960Z,94566.00
2023-11-30T00:19:53.778Z,94558.91
2023-11-30T00:21:56.579Z,94556.13
2023-11-30T00:24:01.056Z,94554.13
2023-11-30T00:26:03.862Z,94559.13
2023-11-30T00:28:06.943Z,94554.47
2023-11-30T00:30:11.219Z,94556.03
2023-11-30T00:32:13.297Z,94551.34
2023-11-30T00:34:16.226Z,94550.34
2023-11-30T00:36:19.031Z,94546.88
2023-11-30T00:38:22.206Z,94545.31
2023-11-30T00:40:26.438Z,94541.19
2023-11-30T00:42:29.302Z,94539.09
2023-11-30T00:44:32.205Z,94534.75
2023-11-30T00:46:35.353Z,94532.97
2023-11-30T00:48:38.188Z,94538.31
2023-11-30T00:50:40.999Z,94534.19
2023-11-30T00:52:43.891Z,94532.19
2023-11-30T00:54:46.673Z,94538.75
2023-11-30T00:56:50.897Z,94541.19
2023-11-30T00:58:53.797Z,94547.44
2023-11-30T01:00:57.571Z,94541.75
2023-11-30T01:03:00.390Z,94542.44
2023-11-30T01:05:03.318Z,94542.84
2023-11-30T01:07:05.363Z,94553.44
2023-11-30T01:09:08.424Z,94543.19
2023-11-30T01:11:12.313Z,94544.41
2023-11-30T01:13:17.148Z,94538.72
2023-11-30T01:15:20.955Z,94541.72
2023-11-30T01:17:24.006Z,94537.59
2023-11-30T01:19:26.856Z,94533.94
2023-11-30T01:21:29.759Z,94529.84
2023-11-30T01:23:33.734Z,94526.16
2023-11-30T01:25:36.548Z,94531.13
2023-11-30T01:27:39.394Z,94525.34
2023-11-30T01:29:42.649Z,94531.78
2023-11-30T01:31:45.682Z,94528.09
2023-11-30T01:33:48.706Z,94527.66
2023-11-30T01:35:51.733Z,94533.34
2023-11-30T01:37:54.618Z,94532.22
2023-11-30T01:39:57.567Z,94535.75
2023-11-30T01:42:01.929Z,94536.41
2023-11-30T01:44:05.937Z,94527.75
2023-11-30T01:46:11.029Z,94524.84
2023-11-30T01:48:14.840Z,94519.47
2023-11-30T01:50:18.521Z,94505.34
2023-11-30T01:52:21.422Z,94509.31
2023-11-30T01:54:25.306Z,94505.53
2023-11-30T01:56:30.012Z,94513.56
2023-11-30T01:58:33.507Z,94508.78
2023-11-30T02:00:38.440Z,94513.56
2023-11-30T02:02:43.335Z,94501.06
2023-11-30T02:04:53.161Z,94492.06
2023-11-30T02:06:57.271Z,94490.16
2023-11-30T02:09:00.411Z,94484.28
2023-11-30T02:11:02.352Z,94484.91
2023-11-30T02:13:05.222Z,94472.94
2023-11-30T02:15:11.966Z,94467.47
2023-11-30T02:17:20.481Z,94469.69
2023-11-30T02:19:24.701Z,94474.03
2023-11-30T02:21:27.627Z,94468.25
2023-11-30T02:23:31.787Z,94481.25
2023-11-30T02:25:34.618Z,94481.25
2023-11-30T02:27:37.618Z,94488.78
2023-11-30T02:29:39.425Z,94490.56
2023-11-30T02:31:42.243Z,94487.22
2023-11-30T02:33:45.109Z,94486.38
2023-11-30T02:35:47.955Z,94491.91
2023-11-30T02:37:50.776Z,94486.78
2023-11-30T02:39:53.920Z,94479.75
2023-11-30T02:41:56.727Z,94466.34
2023-11-30T02:43:59.649Z,94463.38
2023-11-30T02:46:02.615Z,94458.81
2023-11-30T02:48:05.751Z,94449.47
2023-11-30T02:50:10.218Z,94457.78
2023-11-30T02:52:13.153Z,94449.13
2023-11-30T02:54:15.987Z,94444.34
2023-11-30T02:56:20.147Z,94450.59
2023-11-30T02:58:22.976Z,94457.16
2023-11-30T03:00:25.788Z,94459.94
2023-11-30T03:02:29.651Z,94457.94
2023-11-30T03:04:32.735Z,94452.41
2023-11-30T03:06:34.698Z,94452.09
2023-11-30T03:08:37.498Z,94432.22
2023-11-30T03:10:40.271Z,94434.88
2023-11-30T03:12:44.036Z,94432.03
2023-11-30T03:14:46.877Z,94430.56
2023-11-30T03:16:49.636Z,94436.69
2023-11-30T03:19:02.454Z,94436.69
2023-11-30T03:21:19.947Z,94441.78
2023-11-30T03:23:22.712Z,94439.78
2023-11-30T03:25:25.477Z,94437.81
2023-11-30T03:27:28.333Z,94429.13
2023-11-30T03:29:32.524Z,94424.03
2023-11-30T03:31:37.644Z,94418.56
2023-11-30T03:33:43.086Z,94413.13
2023-11-30T03:35:46.606Z,94411.56
2023-11-30T03:37:49.869Z,94410.81
2023-11-30T03:39:53.289Z,94409.03
2023-11-30T03:41:56.175Z,94409.13
2023-11-30T03:43:58.998Z,94403.13
2023-11-30T03:46:03.203Z,94395.53
2023-11-30T03:48:07.540Z,94393.13
2023-11-30T03:50:10.953Z,94384.00
2023-11-30T03:52:13.901Z,94385.25
2023-11-30T03:54:16.840Z,94384.91
2023-11-30T03:56:19.808Z,94391.22
2023-11-30T03:58:22.581Z,94382.00
2023-11-30T04:00:24.810Z,94385.13
2023-11-30T04:02:29.082Z,94388.88
2023-11-30T04:04:32.036Z,94391.66
2023-11-30T04:06:36.213Z,94389.09
2023-11-30T04:08:38.092Z,94379.91
2023-11-30T04:10:40.871Z,94385.53
2023-11-30T04:12:43.677Z,94380.09
2023-11-30T04:14:46.468Z,94375.97
2023-11-30T04:16:49.404Z,94370.31
2023-11-30T04:18:53.688Z,94368.09
2023-11-30T04:20:56.877Z,94369.41
2023-11-30T04:22:59.658Z,94348.31
2023-11-30T04:25:01.612Z,94347.31
2023-11-30T04:27:04.771Z,94341.00
2023-11-30T04:29:06.698Z,94338.34
2023-11-30T04:31:10.386Z,94336.13
2023-11-30T04:33:14.414Z,94343.66
2023-11-30T04:35:18.718Z,94349.69
2023-11-30T04:37:21.531Z,94352.56
2023-11-30T04:39:24.339Z,94360.25
2023-11-30T04:41:28.820Z,94353.44
2023-11-30T04:43:32.746Z,94352.22
2023-11-30T04:45:35.569Z,94350.03
2023-11-30T04:47:38.511Z,94347.91
2023-11-30T04:49:41.411Z,94349.56
2023-11-30T04:51:45.569Z,94338.53
2023-11-30T04:53:47.929Z,94328.22
2023-11-30T04:55:50.757Z,94330.78
2023-11-30T04:57:54.750Z,94346.22
2023-11-30T04:59:57.623Z,94347.78
2023-11-30T05:01:59.831Z,94339.44
2023-11-30T05:04:03.728Z,94342.22
2023-11-30T05:06:06.526Z,94344.22
2023-11-30T05:08:11.809Z,94338.66
2023-11-30T05:10:15.430Z,94325.66
2023-11-30T05:12:18.489Z,94335.44
2023-11-30T05:14:20.362Z,94333.19
2023-11-30T05:16:23.209Z,94334.97
2023-11-30T05:18:26.034Z,94334.19
2023-11-30T05:20:28.831Z,94330.09
2023-11-30T05:22:32.348Z,94331.19
2023-11-30T05:24:36.506Z,94325.09
2023-11-30T05:26:39.269Z,94333.53
2023-11-30T05:28:42.611Z,94328.97
2023-11-30T05:30:45.451Z,94329.75
2023-11-30T05:32:48.330Z,94332.19
2023-11-30T05:34:52.803Z,94329.09
2023-11-30T05:36:55.542Z,94320.19
2023-11-30T05:38:58.646Z,94313.97
2023-11-30T05:41:02.879Z,94317.06
2023-11-30T05:43:06.270Z,94315.81
2023-11-30T05:45:09.757Z,94314.28
2023-11-30T05:47:11.701Z,94315.75
2023-11-30T05:49:14.673Z,94318.59
2023-11-30T05:51:17.577Z,94315.06
2023-11-30T05:53:20.340Z,94313.50
2023-11-30T05:55:23.316Z,94301.81
2023-11-30T05:57:27.500Z,94300.03
2023-11-30T05:59:30.286Z,94302.81
2023-11-30T06:01:33.197Z,94311.03
2023-11-30T06:03:36.274Z,94305.47
2023-11-30T06:05:39.245Z,94296.81
2023-11-30T06:07:46.028Z,94288.56
2023-11-30T06:09:49.438Z,94284.53
2023-11-30T06:11:53.606Z,94283.53
2023-11-30T06:13:58.960Z,94284.31
2023-11-30T06:16:03.055Z,94281.75
2023-11-30T06:18:05.965Z,94280.34
2023-11-30T06:20:11.727Z,94275.22
2023-11-30T06:22:15.033Z,94281.91
2023-11-30T06:24:16.882Z,94279.25
2023-11-30T06:26:20.400Z,94269.78
2023-11-30T06:28:22.188Z,94266.56
2023-11-30T06:30:26.334Z,94266.63
2023-11-30T06:32:28.242Z,94264.06
2023-11-30T06:34:31.245Z,94265.84
2023-11-30T06:36:34.015Z,94266.19
2023-11-30T06:38:35.787Z,94262.63
2023-11-30T06:40:38.609Z,94265.63
2023-11-30T06:42:41.405Z,94255.88
2023-11-30T06:44:46.184Z,94256.19
2023-11-30T06:46:50.816Z,94263.84
2023-11-30T06:48:54.416Z,94267.63
2023-11-30T06:50:57.187Z,94269.19
2023-11-30T06:53:00.180Z,94272.19
2023-11-30T06:55:03.805Z,94270.41
2023-11-30T06:57:05.749Z,94272.50
2023-11-30T06:59:08.562Z,94266.75
2023-11-30T07:01:11.893Z,94253.41
2023-11-30T07:03:16.139Z,94246.91
2023-11-30T07:05:19.077Z,94248.69
2023-11-30T07:07:31.080Z,94248.94
2023-11-30T07:09:38.643Z,94249.22
2023-11-30T07:11:41.586Z,94250.47
2023-11-30T07:13:44.569Z,94254.34
2023-11-30T07:15:47.431Z,94254.50
2023-11-30T07:17:50.284Z,94261.19
2023-11-30T07:19:54.898Z,94273.41
2023-11-30T07:21:57.730Z,94274.31
2023-11-30T07:24:00.821Z,94277.88
2023-11-30T07:26:06.978Z,94277.41
2023-11-30T07:28:09.824Z,94281.41
2023-11-30T07:30:13.034Z,94265.81
2023-11-30T07:32:16.530Z,94270.03
2023-11-30T07:34:19.659Z,94271.59
2023-11-30T07:36:23.824Z,94265.47
2023-11-30T07:38:26.594Z,94278.34
2023-11-30T07:40:29.359Z,94278.81
2023-11-30T07:42:37.022Z,94264.47
2023-11-30T07:44:40.576Z,94264.75
2023-11-30T07:46:43.413Z,94258.88
2023-11-30T07:48:46.215Z,94261.53
2023-11-30T07:50:48.977Z,94269.06
2023-11-30T07:52:53.463Z,94269.31
2023-11-30T07:54:56.210Z,94265.41
2023-11-30T07:57:01.408Z,94261.84
2023-11-30T07:59:04.145Z,94266.81
2023-11-30T08:01:07.491Z,94257.34
2023-11-30T08:03:10.314Z,94252.56
2023-11-30T08:05:13.651Z,94261.88
2023-11-30T08:07:15.933Z,94268.09
2023-11-30T08:09:21.248Z,94260.81
2023-11-30T08:11:24.045Z,94260.66
2023-11-30T08:13:26.978Z,94262.28
2023-11-30T08:15:28.775Z,94256.16
2023-11-30T08:17:31.882Z,94252.91
2023-11-30T08:19:34.845Z,94246.00
2023-11-30T08:21:41.426Z,94250.72
2023-11-30T08:23:44.954Z,94248.25
2023-11-30T08:25:49.049Z,94246.22
2023-11-30T08:27:54.629Z,94250.41
2023-11-30T08:29:57.744Z,94245.59
2023-11-30T08:32:00.711Z,94242.19
2023-11-30T08:34:03.786Z,94234.50
2023-11-30T08:36:07.325Z,94233.56
2023-11-30T08:38:10.282Z,94243.88
2023-11-30T08:40:13.405Z,94245.88
2023-11-30T08:42:17.540Z,94242.81
2023-11-30T08:44:20.315Z,94246.22
2023-11-30T08:46:23.106Z,94254.44
2023-11-30T08:48:26.797Z,94252.13
2023-11-30T08:50:30.124Z,94250.09
2023-11-30T08:52:32.910Z,94243.22
2023-11-30T08:54:35.678Z,94229.72
2023-11-30T08:56:38.405Z,94232.84
2023-11-30T08:58:42.915Z,94229.81
2023-11-30T09:00:45.770Z,94230.31
2023-11-30T09:02:47.717Z,94228.59
2023-11-30T09:04:50.702Z,94228.44
2023-11-30T09:06:53.460Z,94225.16
2023-11-30T09:08:56.178Z,94222.91
2023-11-30T09:10:58.988Z,94232.16
2023-11-30T09:13:03.943Z,94220.63
2023-11-30T09:15:10.572Z,94223.50
2023-11-30T09:17:13.618Z,94227.06
2023-11-30T09:19:15.497Z,94224.03
2023-11-30T09:21:18.834Z,94221.53
2023-11-30T09:23:22.041Z,94230.06
2023-11-30T09:25:24.921Z,94225.22
2023-11-30T09:27:27.751Z,94225.53
2023-11-30T09:29:30.866Z,94222.72
2023-11-30T09:31:34.970Z,94229.69
2023-11-30T09:33:37.712Z,94229.78
2023-11-30T09:35:40.446Z,94232.09
2023-11-30T09:37:42.254Z,94223.91
2023-11-30T09:39:45.743Z,94233.94
2023-11-30T09:41:48.744Z,94243.97
2023-11-30T09:43:51.113Z,94232.13
2023-11-30T09:45:55.952Z,94236.03
2023-11-30T09:48:00.062Z,94232.72
2023-11-30T09:50:02.897Z,94217.31
2023-11-30T09:52:05.413Z,94222.97
2023-11-30T09:54:08.183Z,94222.44
2023-11-30T09:56:12.528Z,94221.69
2023-11-30T09:58:16.261Z,94223.50
2023-11-30T10:00:21.471Z,94227.56
2023-11-30T10:02:26.748Z,94221.44
2023-11-30T10:04:31.113Z,94207.81
2023-11-30T10:06:33.876Z,94204.25
2023-11-30T10:08:35.668Z,94207.16
2023-11-30T10:10:38.381Z,94190.22
2023-11-30T10:12:41.158Z,94197.13
2023-11-30T10:14:43.962Z,94199.97
2023-11-30T10:16:46.870Z,94178.38
2023-11-30T10:18:50.055Z,94181.50
2023-11-30T10:20:54.274Z,94185.66
2023-11-30T10:22:57.035Z,94187.28
2023-11-30T10:24:59.770Z,94178.66
2023-11-30T10:27:07.384Z,94181.81
2023-11-30T10:29:12.188Z,94189.59
2023-11-30T10:31:18.639Z,94191.75
2023-11-30T10:33:24.043Z,94183.00
2023-11-30T10:35:29.921Z,94186.06
2023-11-30T10:37:35.286Z,94189.72
2023-11-30T10:39:43.868Z,94175.09
2023-11-30T10:41:53.263Z,94175.66
2023-11-30T10:43:57.476Z,94174.88
2023-11-30T10:46:01.511Z,94186.44
2023-11-30T10:48:04.804Z,94182.84
2023-11-30T10:50:09.963Z,94186.72
2023-11-30T10:52:13.007Z,94181.84
2023-11-30T10:54:24.784Z,94184.69
2023-11-30T10:56:28.704Z,94174.66
2023-11-30T10:58:34.555Z,94178.53
2023-11-30T11:00:37.597Z,94169.28
2023-11-30T11:02:45.185Z,94163.59
2023-11-30T11:04:48.547Z,94173.41
2023-11-30T11:06:50.502Z,94159.53
2023-11-30T11:09:03.023Z,94152.81
2023-11-30T11:11:11.923Z,94161.56
2023-11-30T11:13:20.529Z,94156.47
2023-11-30T11:15:24.820Z,94159.03
2023-11-30T11:17:29.012Z,94154.38
2023-11-30T11:19:33.060Z,94144.09
2023-11-30T11:21:40.525Z,94150.75
2023-11-30T11:23:44.319Z,94144.09
2023-11-30T11:25:48.304Z,94141.78
2023-11-30T11:27:52.681Z,94147.22
2023-11-30T11:29:56.358Z,94149.28
2023-11-30T11:32:00.227Z,94149.56
2023-11-30T11:34:03.369Z,94152.91
2023-11-30T11:36:06.895Z,94145.22
2023-11-30T11:38:10.055Z,94141.38
2023-11-30T11:40:13.065Z,94130.06
2023-11-30T11:42:15.013Z,94131.88
2023-11-30T11:44:20.702Z,94131.88
2023-11-30T11:46:24.869Z,94132.94
2023-11-30T11:48:27.712Z,94131.41
2023-11-30T11:50:30.496Z,94136.28
2023-11-30T11:52:33.336Z,94137.06
2023-11-30T11:54:36.296Z,94130.34
2023-11-30T11:56:46.283Z,94144.03
2023-11-30T11:58:49.002Z,94143.50
2023-11-30T12:00:57.025Z,94138.88
2023-11-30T12:03:07.605Z,94151.50
2023-11-30T12:05:11.826Z,94145.81
2023-11-30T12:07:17.415Z,94139.66
2023-11-30T12:09:20.907Z,94138.09
2023-11-30T12:11:23.696Z,94140.44
2023-11-30T12:13:28.093Z,94139.13
2023-11-30T12:15:31.514Z,94145.28
2023-11-30T12:17:35.687Z,94136.00
2023-11-30T12:19:38.656Z,94125.22
2023-11-30T12:21:41.887Z,94132.41
2023-11-30T12:23:44.901Z,94133.16
2023-11-30T12:25:47.662Z,94123.41
2023-11-30T12:27:51.327Z,94116.97
2023-11-30T12:29:54.217Z,94112.88
2023-11-30T12:31:57.161Z,94115.72
2023-11-30T12:34:01.963Z,94111.84
2023-11-30T12:36:05.149Z,94103.41
2023-11-30T12:38:08.148Z,94108.78
2023-11-30T12:40:11.516Z,94105.97
2023-11-30T12:42:14.413Z,94113.94
2023-11-30T12:44:17.246Z,94110.34
2023-11-30T12:46:21.272Z,94111.84
2023-11-30T12:48:24.087Z,94113.41
2023-11-30T12:50:28.269Z,94111.88
2023-11-30T12:52:31.008Z,94122.19
2023-11-30T12:54:33.924Z,94126.31
2023-11-30T12:56:36.718Z,94113.44
2023-11-30T12:58:38.537Z,94114.47
2023-11-30T13:00:42.497Z,94118.84
2023-11-30T13:02:48.540Z,94117.53
2023-11-30T13:04:52.037Z,94130.91
2023-11-30T13:06:56.560Z,94121.13
2023-11-30T13:08:59.353Z,94125.25
2023-11-30T13:11:02.297Z,94113.16
2023-11-30T13:13:06.615Z,94106.72
2023-11-30T13:15:12.266Z,94111.09
2023-11-30T13:17:17.974Z,94116.97
2023-11-30T13:19:24.101Z,94122.34
2023-11-30T13:21:28.619Z,94123.34
2023-11-30T13:23:32.723Z,94124.09
2023-11-30T13:25:35.831Z,94106.59
2023-11-30T13:27:39.024Z,94110.97
2023-11-30T13:29:41.865Z,94117.91
2023-11-30T13:31:44.906Z,94105.06
2023-11-30T13:33:47.752Z,94102.72
2023-11-30T13:35:50.538Z,94109.66
2023-11-30T13:37:53.525Z,94104.50
2023-11-30T13:39:57.623Z,94109.66
2023-11-30T13:42:00.925Z,94103.50
2023-11-30T13:44:02.719Z,94099.38
2023-11-30T13:46:06.950Z,94101.94
2023-11-30T13:48:09.823Z,94102.97
2023-11-30T13:50:25.586Z,94098.59
2023-11-30T13:52:33.640Z,94108.63
2023-11-30T13:54:36.502Z,94110.19
2023-11-30T13:56:40.989Z,94109.66
2023-11-30T13:58:43.924Z,94108.09
2023-11-30T14:00:46.924Z,94108.09
2023-11-30T14:02:49.814Z,94109.63
2023-11-30T14:04:52.611Z,94115.78
2023-11-30T14:06:58.047Z,94106.81
2023-11-30T14:09:00.911Z,94099.88
2023-11-30T14:11:04.811Z,94112.19
2023-11-30T14:13:09.189Z,94090.84
2023-11-30T14:15:13.052Z,94097.28
2023-11-30T14:17:17.400Z,94087.53
2023-11-30T14:19:20.337Z,94082.41
2023-11-30T14:21:23.104Z,94087.78
2023-11-30T14:23:25.073Z,94089.88
2023-11-30T14:25:29.073Z,94094.75
2023-11-30T14:27:31.923Z,94102.47
2023-11-30T14:29:35.960Z,94100.91
2023-11-30T14:31:38.666Z,94092.69
2023-11-30T14:33:40.710Z,94098.84
2023-11-30T14:35:43.612Z,94099.34
2023-11-30T14:37:45.503Z,94112.69
2023-11-30T14:39:48.480Z,94117.81
2023-11-30T14:41:51.288Z,94094.19
2023-11-30T14:43:53.082Z,94100.59
2023-11-30T14:45:57.311Z,94100.31
2023-11-30T14:48:01.619Z,94080.22
2023-11-30T14:50:05.131Z,94099.25
2023-11-30T14:52:08.400Z,94091.03
2023-11-30T14:54:11.362Z,94081.00
2023-11-30T14:56:13.225Z,94075.63
2023-11-30T14:58:16.000Z,94081.78
2023-11-30T15:00:22.168Z,94079.69
2023-11-30T15:02:26.583Z,94078.91
2023-11-30T15:04:29.735Z,94085.31
2023-11-30T15:06:33.143Z,94093.28
2023-11-30T15:08:36.829Z,94095.31
2023-11-30T15:10:39.703Z,94114.13
2023-11-30T15:12:42.784Z,94116.94
2023-11-30T15:14:45.708Z,94125.38
2023-11-30T15:16:49.875Z,94117.41
2023-11-30T15:18:54.146Z,94095.06
2023-11-30T15:20:56.935Z,94099.19
2023-11-30T15:22:59.717Z,94118.72
2023-11-30T15:25:01.587Z,94125.91
2023-11-30T15:27:04.768Z,94124.09
2023-11-30T15:29:07.508Z,94120.75
2023-11-30T15:31:10.753Z,94107.69
2023-11-30T15:33:14.174Z,94118.19
2023-11-30T15:35:18.251Z,94126.91
2023-11-30T15:37:21.065Z,94147.00
2023-11-30T15:39:25.341Z,94149.56
2023-11-30T15:41:28.226Z,94138.50
2023-11-30T15:43:31.693Z,94137.50
2023-11-30T15:45:34.601Z,94134.44
2023-11-30T15:47:37.508Z,94129.53
2023-11-30T15:49:41.949Z,94127.50
2023-11-30T15:51:49.925Z,94131.63
2023-11-30T15:53:52.864Z,94126.47
2023-11-30T15:55:55.980Z,94140.31
2023-11-30T15:57:58.766Z,94122.78
2023-11-30T16:00:01.601Z,94128.41
2023-11-30T16:02:15.261Z,94118.84
2023-11-30T16:04:18.196Z,94111.09
2023-11-30T16:06:21.644Z,94124.16
2023-11-30T16:08:25.863Z,94149.84
2023-11-30T16:10:28.639Z,94150.63
2023-11-30T16:12:31.154Z,94157.56
2023-11-30T16:14:34.807Z,94165.56
2023-11-30T16:16:40.637Z,94166.34
2023-11-30T16:18:43.706Z,94142.97
2023-11-30T16:20:46.813Z,94137.63
2023-11-30T16:22:49.668Z,94154.06
2023-11-30T16:24:54.100Z,94152.28
2023-11-30T16:26:57.289Z,94145.84
2023-11-30T16:29:00.012Z,94146.41
2023-11-30T16:31:03.132Z,94161.50
2023-11-30T16:33:06.275Z,94168.19
2023-11-30T16:35:09.879Z,94169.94
2023-11-30T16:37:13.025Z,94159.16
2023-11-30T16:39:16.105Z,94153.78
2023-11-30T16:41:20.760Z,94138.66
2023-11-30T16:43:23.902Z,94119.63
2023-11-30T16:45:27.699Z,94105.53
2023-11-30T16:47:31.701Z,94103.22
2023-11-30T16:49:34.540Z,94122.47
2023-11-30T16:51:41.664Z,94150.44
2023-11-30T16:53:46.627Z,94152.53
2023-11-30T16:55:49.402Z,94147.38
2023-11-30T16:57:53.553Z,94138.66
2023-11-30T16:59:55.841Z,94142.00
2023-11-30T17:01:59.391Z,94151.75
2023-11-30T17:04:03.445Z,94165.84
2023-11-30T17:06:06.418Z,94136.53
2023-11-30T17:08:09.415Z,94131.84
2023-11-30T17:10:11.185Z,94129.59
2023-11-30T17:12:13.869Z,94137.78
2023-11-30T17:14:18.003Z,94137.06
2023-11-30T17:16:19.915Z,94116.50
2023-11-30T17:18:22.904Z,94117.06
2023-11-30T17:20:25.737Z,94142.50
2023-11-30T17:22:28.532Z,94154.88
2023-11-30T17:24:33.505Z,94152.59
2023-11-30T17:26:36.380Z,94148.19
2023-11-30T17:28:38.142Z,94156.53
2023-11-30T17:30:42.464Z,94154.44
2023-11-30T17:32:45.256Z,94150.28
2023-11-30T17:34:48.241Z,94146.69
2023-11-30T17:36:51.988Z,94140.28
2023-11-30T17:38:54.721Z,94146.72
2023-11-30T17:40:57.649Z,94137.00
2023-11-30T17:43:00.410Z,94138.53
2023-11-30T17:45:03.147Z,94131.88
2023-11-30T17:47:07.475Z,94144.25
2023-11-30T17:49:10.395Z,94142.69
2023-11-30T17:51:18.821Z,94135.97
2023-11-30T17:53:21.841Z,94146.19
2023-11-30T17:55:24.639Z,94136.16
2023-11-30T17:57:27.494Z,94137.47
2023-11-30T17:59:30.283Z,94144.66
2023-11-30T18:01:33.117Z,94137.47
2023-11-30T18:03:37.314Z,94139.03
2023-11-30T18:05:41.074Z,94143.69
2023-11-30T18:07:43.805Z,94142.16
2023-11-30T18:09:47.087Z,94146.81
2023-11-30T18:11:49.839Z,94152.00
2023-11-30T18:13:52.547Z,94143.28
2023-11-30T18:15:56.282Z,94147.91
2023-11-30T18:17:59.918Z,94135.06
2023-11-30T18:20:04.419Z,94147.16
2023-11-30T18:22:07.421Z,94153.03
2023-11-30T18:24:10.272Z,94149.44
2023-11-30T18:26:13.131Z,94135.59
2023-11-30T18:28:15.978Z,94144.06
2023-11-30T18:30:19.024Z,94153.56
2023-11-30T18:32:21.987Z,94145.84
2023-11-30T18:34:24.905Z,94138.66
2023-11-30T18:36:29.140Z,94131.22
2023-11-30T18:38:37.064Z,94141.78
2023-11-30T18:40:43.158Z,94133.53
2023-11-30T18:42:46.679Z,94132.00
2023-11-30T18:44:49.478Z,94132.47
2023-11-30T18:46:52.320Z,94125.03
2023-11-30T18:48:55.220Z,94131.19
2023-11-30T18:50:58.100Z,94131.19
2023-11-30T18:53:02.355Z,94128.34
2023-11-30T18:55:05.979Z,94131.19
2023-11-30T18:57:08.768Z,94142.75
2023-11-30T18:59:11.966Z,94134.00
2023-11-30T19:01:16.353Z,94129.13
2023-11-30T19:03:19.305Z,94127.56
2023-11-30T19:05:22.417Z,94134.50
2023-11-30T19:07:25.455Z,94139.59
2023-11-30T19:09:29.542Z,94132.63
2023-11-30T19:11:32.237Z,94133.66
2023-11-30T19:13:36.087Z,94146.25
2023-11-30T19:15:42.323Z,94148.28
2023-11-30T19:17:49.095Z,94146.69
2023-11-30T19:19:52.102Z,94164.91
2023-11-30T19:21:54.975Z,94167.13
2023-11-30T19:23:57.823Z,94160.72
2023-11-30T19:26:01.297Z,94162.50
2023-11-30T19:28:04.329Z,94160.44
2023-11-30T19:30:08.368Z,94164.31
2023-11-30T19:32:11.144Z,94160.44
2023-11-30T19:34:15.301Z,94165.56
2023-11-30T19:36:18.206Z,94160.41
2023-11-30T19:38:27.463Z,94166.09
2023-11-30T19:40:30.505Z,94164.03
2023-11-30T19:42:34.690Z,94155.84
2023-11-30T19:44:37.523Z,94162.28
2023-11-30T19:46:40.350Z,94157.41
2023-11-30T19:48:45.201Z,94163.06
2023-11-30T19:50:48.174Z,94170.00
2023-11-30T19:52:50.025Z,94165.09
2023-11-30T19:54:52.906Z,94170.53
2023-11-30T19:56:57.051Z,94171.06
2023-11-30T19:59:02.078Z,94165.41
2023-11-30T20:01:04.264Z,94169.03
2023-11-30T20:03:07.195Z,94170.84
2023-11-30T20:05:10.501Z,94171.84
2023-11-30T20:07:13.243Z,94179.56
2023-11-30T20:09:16.105Z,94176.97
2023-11-30T20:11:20.876Z,94166.94
2023-11-30T20:13:23.667Z,94157.47
2023-11-30T20:15:29.330Z,94166.94
2023-11-30T20:17:31.278Z,94182.84
2023-11-30T20:19:36.135Z,94176.34
2023-11-30T20:21:37.986Z,94160.38
2023-11-30T20:23:40.773Z,94154.28
2023-11-30T20:25:43.608Z,94160.97
2023-11-30T20:27:45.702Z,94173.81
2023-11-30T20:29:48.646Z,94173.34
2023-11-30T20:31:52.748Z,94155.38
2023-11-30T20:33:55.759Z,94171.00
2023-11-30T20:35:59.101Z,94183.56
2023-11-30T20:38:02.386Z,94184.56
2023-11-30T20:40:05.985Z,94183.03
2023-11-30T20:42:09.162Z,94185.06
2023-11-30T20:44:16.281Z,94176.84
2023-11-30T20:46:20.950Z,94169.38
2023-11-30T20:48:26.733Z,94164.00
2023-11-30T20:50:29.536Z,94165.50
2023-11-30T20:52:34.697Z,94173.44
2023-11-30T20:54:38.210Z,94176.22
2023-11-30T20:56:41.073Z,94181.59
2023-11-30T20:58:46.591Z,94188.47
2023-11-30T21:00:51.461Z,94189.50
2023-11-30T21:02:54.497Z,94187.25
2023-11-30T21:04:58.918Z,94193.63
2023-11-30T21:07:01.740Z,94193.88
2023-11-30T21:09:05.442Z,94190.50
2023-11-30T21:11:08.649Z,94189.72
2023-11-30T21:13:11.720Z,94197.13
2023-11-30T21:15:15.065Z,94199.75
2023-11-30T21:17:18.380Z,94187.38
2023-11-30T21:19:21.585Z,94191.50
2023-11-30T21:21:24.886Z,94187.19
2023-11-30T21:23:27.858Z,94188.03
2023-11-30T21:25:31.236Z,94193.19
2023-11-30T21:27:34.864Z,94186.56
2023-11-30T21:29:37.652Z,94185.25
2023-11-30T21:31:40.645Z,94181.44
2023-11-30T21:33:43.627Z,94177.78
2023-11-30T21:35:45.434Z,94171.69
2023-11-30T21:37:49.552Z,94160.97
2023-11-30T21:39:52.416Z,94155.31
2023-11-30T21:41:55.254Z,94164.09
2023-11-30T21:43:58.252Z,94175.97
2023-11-30T21:46:01.054Z,94182.16
2023-11-30T21:48:04.015Z,94184.94
2023-11-30T21:50:15.036Z,94185.97
2023-11-30T21:52:18.393Z,94168.25
2023-11-30T21:54:22.539Z,94156.00
2023-11-30T21:56:25.376Z,94159.09
2023-11-30T21:58:28.134Z,94163.22
2023-11-30T22:00:31.009Z,94173.47
2023-11-30T22:02:33.865Z,94174.78
2023-11-30T22:04:36.894Z,94173.50
2023-11-30T22:06:40.378Z,94160.13
2023-11-30T22:08:43.211Z,94145.25
2023-11-30T22:10:47.460Z,94149.38
2023-11-30T22:12:49.330Z,94156.53
2023-11-30T22:14:52.108Z,94144.25
2023-11-30T22:16:54.962Z,94133.19
2023-11-30T22:18:58.347Z,94145.78
2023-11-30T22:21:01.254Z,94153.75
2023-11-30T22:23:04.023Z,94154.75
2023-11-30T22:25:07.737Z,94160.66
2023-11-30T22:27:10.913Z,94156.53
2023-11-30T22:29:13.718Z,94160.13
2023-11-30T22:31:16.823Z,94160.88
2023-11-30T22:33:19.630Z,94161.41
2023-11-30T22:35:22.460Z,94150.84
2023-11-30T22:37:25.331Z,94156.03
2023-11-30T22:39:28.257Z,94150.63
2023-11-30T22:41:30.230Z,94160.13
2023-11-30T22:43:34.372Z,94164.22
2023-11-30T22:45:37.179Z,94166.25
2023-11-30T22:47:40.029Z,94181.66
2023-11-30T22:49:42.898Z,94186.03
2023-11-30T22:51:46.000Z,94183.13
2023-11-30T22:53:48.842Z,94182.53
2023-11-30T22:55:51.636Z,94182.84
2023-11-30T22:57:54.509Z,94182.06
2023-11-30T22:59:58.642Z,94189.69
2023-11-30T23:02:01.608Z,94189.13
2023-11-30T23:04:04.655Z,94190.13
2023-11-30T23:06:07.919Z,94186.00
2023-11-30T23:08:10.646Z,94180.56
2023-11-30T23:10:17.719Z,94182.84
2023-11-30T23:12:20.488Z,94182.44
2023-11-30T23:14:23.521Z,94182.38
2023-11-30T23:16:28.165Z,94182.09
2023-11-30T23:18:32.976Z,94194.59
2023-11-30T23:20:35.946Z,94204.59
2023-11-30T23:22:38.847Z,94207.63
2023-11-30T23:24:42.651Z,94203.31
2023-11-30T23:26:45.595Z,94193.06
2023-11-30T23:28:48.435Z,94189.75
2023-11-30T23:30:51.255Z,94191.34
2023-11-30T23:32:55.942Z,94193.47
2023-11-30T23:34:58.818Z,94199.09
2023-11-30T23:37:01.646Z,94201.13
2023-11-30T23:39:05.543Z,94205.94
2023-11-30T23:41:07.575Z,94198.56
2023-11-30T23:43:10.469Z,94198.56
2023-11-30T23:45:13.495Z,94193.44
2023-11-30T23:47:16.290Z,94192.69
2023-11-30T23:49:20.395Z,94185.25
2023-11-30T23:51:23.153Z,94179.16
2023-11-30T23:53:26.240Z,94165.59
2023-11-30T23:55:29.163Z,94160.28
2023-11-30T23:57:32.150Z,94159.31
2023-11-30T23:59:35.172Z,94157.31
